This is the latest recevied weather packets stored in our database for station/object E27EKO-13. If no packets are shown the sender has not sent any weather packets the latest 10 day(s).
| Time | Temp. | Humidity | Pressure | Rain* | Wind** | Luminosity | Snow |
|---|---|---|---|---|---|---|---|
| 1777766790 | 41.67° C | 53% | 1008 hPa | - | - | 0 W/m² | - |
| 1777766468 | 40.56° C | 57% | 1008 hPa | - | - | 0 W/m² | - |
| 1777766145 | 38.89° C | 63% | 1008 hPa | - | - | 0 W/m² | - |
| 1777765823 | 37.78° C | 66% | 1008 hPa | - | - | 0 W/m² | - |
| 1777765501 | 37.22° C | 67% | 1008 hPa | - | - | 0 W/m² | - |
| 1777765179 | 36.67° C | 71% | 1008 hPa | - | - | 0 W/m² | - |
| 1777764857 | 35.56° C | 78% | 1008 hPa | - | - | 0 W/m² | - |
| 1777764748 | 34.44° C | 80% | 1008 hPa | - | - | 0 W/m² | - |
| 1777764508 | 33.33° C | 86% | 1008 hPa | - | - | 0 W/m² | - |
| 1777764186 | 32.22° C | 93% | 1008 hPa | - | - | 0 W/m² | - |
| 1777764061 | 31.67° C | 95% | 1008 hPa | - | - | 0 W/m² | - |
| 1777763739 | 31.67° C | 98% | 1008 hPa | - | - | 0 W/m² | - |
| 1777763458 | 31.11° C | 99% | 1008 hPa | - | - | 0 W/m² | - |
| 1777763136 | 31.11° C | 99% | 1008 hPa | - | - | 0 W/m² | - |
| 1777762814 | 31.67° C | 97% | 1008 hPa | - | - | 0 W/m² | - |
| 1777762492 | 31.67° C | 96% | 1008 hPa | - | - | 0 W/m² | - |
| 1777762170 | 31.67° C | 96% | 1008 hPa | - | - | 0 W/m² | - |
| 1777761848 | 31.67° C | 97% | 1008 hPa | - | - | 0 W/m² | - |
| 1777760317 | 31.67° C | 96% | 1007 hPa | - | - | 0 W/m² | - |
| 1777759995 | 31.67° C | 96% | 1007 hPa | - | - | 0 W/m² | - |
| 1777759673 | 31.67° C | 96% | 1007 hPa | - | - | 0 W/m² | - |
| 1777759351 | 31.67° C | 96% | 1007 hPa | - | - | 0 W/m² | - |
| 1777759029 | 31.67° C | 96% | 1007 hPa | - | - | 0 W/m² | - |
| 1777758707 | 31.67° C | 96% | 1007 hPa | - | - | 0 W/m² | - |
| 1777758385 | 31.67° C | 96% | 1007 hPa | - | - | 0 W/m² | - |
* Rain since midnight (hover to see other rain measurements)
** Current wind speed in m/s (hover to see current wind gust speed)